Archival Weather

Fukuoka

Fukuoka, Japan (RJFF)

Report from: Monday, August 15, 2022 1:30 PM JST
Current time: Sunday, February 25, 2024 1:44 AM JST

Current weather – Weather history – Daily summaries
Weather forecast

Present weatherLight thunderstorm with rain
Temperature32.0°C (89.6°F)
Heat index40.7°C (105.2°F)
Dew point26.0°C (78.8°F)
Winds 9 kts (4.6 m/s, 10.4 mph) Vrb
Winds variableWinds variable from Southeast (140°) to South-Southwest (200°)
Visibility6.2 mi. (10 km)
Clouds Ceiling: Broken clouds 0 ft. (0 m)
Few clouds 2,500 ft. (762 m)
Few clouds with cumulonimbus 3,000 ft. (914 m)
Scattered clouds 4,000 ft. (1,219 m)
Altimeter29.74 in.Hg (1007 mB)
Relative humidity71 %
Density altitude2,598 ft. (792 m)
Remarks No significant changes expected in the next two hours
Flight conditions Low Instrument Meteorological Conditions
Raw dataRJFF 150430Z 17009KT 140V200 9999 -TSRA FEW025 FEW030CB SCT040 BKN/// 32/26 Q1007 NOSIG
An error has occurred. This application may no longer respond until reloaded. Reload 🗙